Rolla, ND

5:40 AM CST on November 19, 2017 (GMT -0600)
Rolla

Weather History for K06D - October, 2011

Change the Weather History Date:

Thursday, October 27, 2011

  Actual Average (KRUG) Record (KRUG)
Temperature  
Mean Temperature 35 °F -  
Max Temperature 44 °F 52 °F 76 °F (1990)
Min Temperature 26 °F 28 °F 10 °F (2017)
Degree Days  
Heating Degree Days 30    
Moisture  
Dew Point 32 °F    
Average Humidity 91    
Maximum Humidity 100    
Minimum Humidity 61    
Precipitation  
Precipitation 0.00 in - - ()
Sea Level Pressure  
Sea Level Pressure 29.94 in    
Wind  
Wind Speed 8 mph (SW)    
Max Wind Speed 15 mph    
Max Gust Speed 25 mph    
Visibility 10 miles    
Events Rain    
Averages and records for this station are not official NWS values.
T = Trace of Precipitation, MM = Missing Value Source: NWS Daily Summary

Daily Weather History Graph

Daily Weather History Graph

Search for Another Location

Airport or City:

Trip Planner

Search our weather history database for the weather conditions in past years. The results will help you decide how hot, cold, wet, or windy it might be!

Date:

Astronomy

Oct. 27, 2011 Rise Set
Actual Time 8:17 AM CDT 6:26 PM CDT
Civil Twilight 7:44 AM CDT 6:59 PM CDT
Nautical Twilight 7:07 AM CDT 7:36 PM CDT
Astronomical Twilight 6:30 AM CDT 8:12 PM CDT
Moon 9:33 AM CDT (10/27) 6:44 PM CDT (10/27)
Length of Visible Light 11h 14m
Length of Day
10h 09m
New Moon, 1% of the Moon is Illuminated
Oct 27
New Moon
Nov 2
First Quarter
Nov 10
Full
Nov 18
Last Quarter
Nov 25
New

Hourly Weather History & Observations

Time (CDT) Temp. Windchill Dew Point Humidity Pressure Visibility Wind Dir Wind Speed Gust Speed Precip Events Conditions
12:15 AM 30.2 °F 23.4 °F 28.4 °F 93% 30.04 in 10.0 mi West 6.9 mph - N/A   Partly Cloudy
12:35 AM 28.4 °F 20.4 °F 28.4 °F 100% 30.04 in 10.0 mi WNW 8.1 mph - N/A   Clear
12:55 AM 30.2 °F 21.9 °F 30.2 °F 100% 30.04 in 10.0 mi West 9.2 mph - N/A   Scattered Clouds
1:15 AM 30.2 °F 21.9 °F 30.2 °F 100% 30.03 in 10.0 mi WNW 9.2 mph - N/A   Partly Cloudy
1:35 AM 30.2 °F 22.6 °F 30.2 °F 100% 30.03 in 10.0 mi West 8.1 mph - N/A   Clear
1:55 AM 28.4 °F 20.4 °F 28.4 °F 100% 30.02 in 10.0 mi West 8.1 mph - N/A   Clear
5:15 AM 28.4 °F 20.4 °F 28.4 °F 100% 29.99 in 10.0 mi WSW 8.1 mph - N/A   Clear
5:35 AM 28.4 °F 19.7 °F 28.4 °F 100% 29.99 in 10.0 mi WSW 9.2 mph - N/A   Clear
5:55 AM 26.6 °F 18.2 °F 26.6 °F 100% 29.99 in 10.0 mi WSW 8.1 mph - N/A   Clear
6:15 AM 26.6 °F 21.2 °F 26.6 °F 100% 29.98 in 10.0 mi SW 4.6 mph - N/A   Clear
6:35 AM 28.4 °F 22.2 °F 28.4 °F 100% 29.98 in 10.0 mi SW 5.8 mph - N/A   Clear
7:15 AM 26.6 °F 21.2 °F 26.6 °F 100% 29.98 in 10.0 mi SSW 4.6 mph - N/A   Clear
7:35 AM 26.6 °F 21.2 °F 26.6 °F 100% 29.97 in 10.0 mi SSW 4.6 mph - N/A   Clear
7:55 AM 26.6 °F - 26.6 °F 100% 29.97 in 10.0 mi Calm Calm - N/A   Clear
8:15 AM 26.6 °F 21.2 °F 26.6 °F 100% 29.97 in 10.0 mi South 4.6 mph - N/A   Clear
8:35 AM 26.6 °F 19.1 °F 26.6 °F 100% 29.97 in 10.0 mi SSW 6.9 mph - N/A   Clear
8:55 AM 28.4 °F 20.4 °F 28.4 °F 100% 29.97 in 10.0 mi SSW 8.1 mph - N/A   Clear
9:15 AM 30.2 °F 24.3 °F 30.2 °F 100% 29.97 in 10.0 mi SSW 5.8 mph - N/A   Clear
9:35 AM 30.2 °F 23.4 °F 30.2 °F 100% 29.96 in 10.0 mi SSW 6.9 mph - N/A   Clear
9:55 AM 30.2 °F 23.4 °F 30.2 °F 100% 29.96 in 10.0 mi SSW 6.9 mph - N/A   Clear
10:15 AM 32.0 °F 24.8 °F 32.0 °F 100% 29.96 in 10.0 mi SSW 8.1 mph - N/A   Clear
10:35 AM 32.0 °F 24.2 °F 32.0 °F 100% 29.95 in 10.0 mi SSW 9.2 mph - N/A   Clear
10:55 AM 32.0 °F 24.8 °F 32.0 °F 100% 29.95 in 10.0 mi SSW 8.1 mph - N/A   Clear
11:15 AM 32.0 °F 24.8 °F 32.0 °F 100% 29.95 in 10.0 mi SSW 8.1 mph - N/A   Clear
11:35 AM 33.8 °F 27.7 °F 33.8 °F 100% 29.94 in 10.0 mi South 6.9 mph - N/A   Clear
11:55 AM 35.6 °F 28.6 °F 32.0 °F 87% 29.93 in 10.0 mi South 9.2 mph - N/A   Clear
12:15 PM 35.6 °F 29.2 °F 33.8 °F 93% 29.93 in 10.0 mi South 8.1 mph - N/A   Clear
12:35 PM 37.4 °F 30.3 °F 32.0 °F 81% 29.92 in 10.0 mi South 10.4 mph - N/A   Clear
12:55 PM 37.4 °F 30.3 °F 32.0 °F 81% 29.91 in 10.0 mi South 10.4 mph - N/A   Clear
1:15 PM 39.2 °F 31.6 °F 32.0 °F 75% 29.91 in 10.0 mi South 12.7 mph 16.1 mph N/A   Clear
1:35 PM 41.0 °F 33.1 °F 32.0 °F 70% 29.90 in 10.0 mi South 15.0 mph - N/A   Clear
1:55 PM 41.0 °F 33.5 °F 32.0 °F 70% 29.89 in 10.0 mi South 13.8 mph 17.3 mph N/A   Clear
2:15 PM 42.8 °F 35.8 °F 33.8 °F 70% 29.88 in 10.0 mi South 13.8 mph 17.3 mph N/A   Clear
2:35 PM 42.8 °F 35.4 °F 33.8 °F 70% 29.88 in 10.0 mi South 15.0 mph 20.7 mph N/A   Clear
2:55 PM 42.8 °F 36.6 °F 33.8 °F 70% 29.87 in 10.0 mi South 11.5 mph - N/A   Clear
3:15 PM 44.6 °F 38.1 °F 32.0 °F 61% 29.87 in 10.0 mi South 13.8 mph 25.3 mph N/A   Scattered Clouds
3:35 PM 44.6 °F 37.8 °F 33.8 °F 66% 29.86 in 10.0 mi South 15.0 mph 19.6 mph N/A   Mostly Cloudy
3:55 PM 44.6 °F 38.8 °F 33.8 °F 66% 29.86 in 10.0 mi South 11.5 mph 17.3 mph N/A   Scattered Clouds
4:15 PM 44.6 °F 38.1 °F 33.8 °F 66% 29.86 in 10.0 mi WSW 13.8 mph 21.9 mph N/A   Mostly Cloudy
4:35 PM 42.8 °F 36.6 °F 32.0 °F 66% 29.86 in 10.0 mi West 11.5 mph - N/A   Overcast
4:55 PM 42.8 °F 36.6 °F 32.0 °F 66% 29.87 in 10.0 mi West 11.5 mph - N/A   Overcast
5:15 PM 41.0 °F 33.5 °F 33.8 °F 76% 29.87 in 10.0 mi West 13.8 mph - N/A   Mostly Cloudy
5:35 PM 41.0 °F 35.2 °F 35.6 °F 81% 29.88 in 10.0 mi West 9.2 mph - N/A   Overcast
5:55 PM 39.2 °F 32.0 °F 37.4 °F 93% 29.88 in 10.0 mi West 11.5 mph - N/A Rain Light Rain
6:15 PM 39.2 °F 33.6 °F 37.4 °F 93% 29.89 in 10.0 mi West 8.1 mph - N/A   Overcast
6:35 PM 37.4 °F 33.8 °F 37.4 °F 100% 29.89 in 10.0 mi West 4.6 mph - N/A   Overcast
6:55 PM 35.6 °F 31.7 °F 35.6 °F 100% 29.90 in 10.0 mi WSW 4.6 mph - N/A   Scattered Clouds
7:15 PM 32.0 °F 25.6 °F 32.0 °F 100% 29.91 in 10.0 mi WSW 6.9 mph - N/A   Mostly Cloudy
7:35 PM 32.0 °F 26.4 °F 32.0 °F 100% 29.92 in 10.0 mi WSW 5.8 mph - N/A   Partly Cloudy
7:55 PM 32.0 °F 28.7 °F 32.0 °F 100% 29.92 in 10.0 mi SW 3.5 mph - N/A   Clear
8:15 PM 32.0 °F 27.5 °F 32.0 °F 100% 29.92 in 10.0 mi WSW 4.6 mph - N/A   Scattered Clouds
8:35 PM 32.0 °F 24.8 °F 32.0 °F 100% 29.92 in 10.0 mi West 8.1 mph - N/A   Mostly Cloudy
8:55 PM 33.8 °F 26.4 °F 33.8 °F 100% 29.92 in 10.0 mi WSW 9.2 mph - N/A   Mostly Cloudy
9:15 PM 33.8 °F 26.4 °F 33.8 °F 100% 29.92 in 10.0 mi West 9.2 mph - N/A   Mostly Cloudy
9:55 PM 33.8 °F 25.3 °F 33.8 °F 100% 29.93 in 10.0 mi West 11.5 mph - N/A   Mostly Cloudy
10:15 PM 35.6 °F 28.0 °F 35.6 °F 100% 29.93 in 10.0 mi West 10.4 mph - N/A   Mostly Cloudy
10:35 PM 35.6 °F 29.2 °F 32.0 °F 87% 29.94 in 10.0 mi West 8.1 mph - N/A   Mostly Cloudy
10:55 PM 32.0 °F 24.8 °F 32.0 °F 100% 29.94 in 10.0 mi WNW 8.1 mph - N/A   Scattered Clouds
11:15 PM 32.0 °F 24.8 °F 32.0 °F 100% 29.94 in 10.0 mi WNW 8.1 mph - N/A   Clear
11:55 PM 33.8 °F 25.8 °F 30.2 °F 87% 29.95 in 10.0 mi WNW 10.4 mph - N/A   Clear